This is the latest recevied weather packets stored in our database for station/object EB1GOD-1. If no packets are shown the sender has not sent any weather packets the latest 10 day(s).
| Time | Temp. | Humidity | Pressure | Rain* | Wind** | Luminosity | Snow |
|---|---|---|---|---|---|---|---|
| 1777556758 | 17.78° C | 72% | 1154.5 hPa | - | - | - | - |
| 1777555858 | 17.78° C | 73% | 1154.7 hPa | - | - | - | - |
| 1777554958 | 17.78° C | 72% | 1154.5 hPa | - | - | - | - |
| 1777554058 | 17.22° C | 73% | 1154.3 hPa | - | - | - | - |
| 1777553158 | 17.78° C | 73% | 1154.3 hPa | - | - | - | - |
| 1777552258 | 17.22° C | 73% | 1154 hPa | - | - | - | - |
| 1777551358 | 17.78° C | 72% | 1153.8 hPa | - | - | - | - |
| 1777550458 | 17.22° C | 74% | 1154 hPa | - | - | - | - |
| 1777549557 | 16.67° C | 76% | 1153.8 hPa | - | - | - | - |
| 1777548657 | 17.22° C | 76% | 1154.1 hPa | - | - | - | - |
| 1777547757 | 16.11° C | 78% | 1154.1 hPa | - | - | - | - |
| 1777546858 | 16.67° C | 78% | 1154 hPa | - | - | - | - |
| 1777545957 | 16.11° C | 78% | 1154 hPa | - | - | - | - |
| 1777545057 | 16.67° C | 78% | 1153.7 hPa | - | - | - | - |
| 1777544157 | 16.67° C | 78% | 1153.6 hPa | - | - | - | - |
| 1777543257 | 16.67° C | 74% | 1153.4 hPa | - | - | - | - |
| 1777542357 | 16.11° C | 74% | 1153.2 hPa | - | - | - | - |
| 1777541457 | 16.67° C | 76% | 1153.1 hPa | - | - | - | - |
| 1777540557 | 15.56° C | 81% | 1153.1 hPa | - | - | - | - |
| 1777539657 | 15.56° C | 82% | 1152.9 hPa | - | - | - | - |
| 1777538743 | 15.56° C | 82% | 1153 hPa | - | - | - | - |
| 1777537843 | 15° C | 85% | 1152.8 hPa | - | - | - | - |
| 1777536943 | 14.44° C | 88% | 1152.7 hPa | - | - | - | - |
| 1777536043 | 14.44° C | 88% | 1152.7 hPa | - | - | - | - |
| 1777535143 | 14.44° C | 88% | 1152.5 hPa | - | - | - | - |
* Rain since midnight (hover to see other rain measurements)
** Current wind speed in m/s (hover to see current wind gust speed)